createdAt,value
2022-08-19T00:00:40.290Z,6.47
2022-08-19T00:03:06.712Z,6.22
2022-08-19T00:05:33.118Z,6.06
2022-08-19T00:07:59.509Z,6.06
2022-08-19T00:10:25.917Z,6.11
2022-08-19T00:12:52.426Z,6.16
2022-08-19T00:15:18.975Z,5.91
2022-08-19T00:17:45.371Z,5.61
2022-08-19T00:20:11.759Z,5.61
2022-08-19T00:22:38.167Z,4.94
2022-08-19T00:25:04.571Z,5.00
2022-08-19T00:27:30.997Z,4.71
2022-08-19T00:29:57.414Z,4.64
2022-08-19T00:32:23.971Z,4.39
2022-08-19T00:34:50.425Z,4.17
2022-08-19T00:37:16.824Z,4.03
2022-08-19T00:39:43.346Z,3.76
2022-08-19T00:42:09.785Z,3.47
2022-08-19T00:44:36.174Z,3.60
2022-08-19T00:47:02.559Z,3.64
2022-08-19T00:49:29.855Z,3.74
2022-08-19T00:51:56.236Z,3.89
2022-08-19T00:54:28.629Z,3.76
2022-08-19T00:56:57.718Z,3.86
2022-08-19T00:59:56.411Z,4.20
2022-08-19T01:02:10.600Z,4.28
2022-08-19T01:04:36.999Z,4.18
2022-08-19T01:07:03.400Z,4.17
2022-08-19T01:09:29.793Z,4.29
2022-08-19T01:11:59.244Z,4.32
2022-08-19T01:14:25.620Z,4.10
2022-08-19T01:16:52.046Z,4.14
2022-08-19T01:19:18.423Z,4.07
2022-08-19T01:21:44.825Z,3.77
2022-08-19T01:24:11.224Z,3.74
2022-08-19T01:26:37.603Z,3.85
2022-08-19T01:29:05.223Z,3.70
2022-08-19T01:31:32.642Z,3.92
2022-08-19T01:33:59.537Z,3.84
2022-08-19T01:36:25.917Z,3.63
2022-08-19T01:38:52.365Z,3.80
2022-08-19T01:41:18.758Z,3.51
2022-08-19T01:44:09.865Z,3.65
2022-08-19T01:46:31.578Z,3.55
2022-08-19T01:48:57.990Z,3.62
2022-08-19T01:51:24.377Z,3.44
2022-08-19T01:53:50.773Z,3.18
2022-08-19T01:56:17.244Z,3.26
2022-08-19T01:58:43.649Z,3.09
2022-08-19T02:01:10.058Z,3.01
2022-08-19T02:03:36.585Z,2.72
2022-08-19T02:06:03.016Z,2.69
2022-08-19T02:08:29.426Z,2.59
2022-08-19T02:10:55.836Z,2.86
2022-08-19T02:13:26.212Z,2.66
2022-08-19T02:15:52.992Z,2.59
2022-08-19T02:18:19.385Z,2.76
2022-08-19T02:20:45.774Z,2.52
2022-08-19T02:23:13.790Z,2.50
2022-08-19T02:25:42.389Z,2.50
2022-08-19T02:28:08.827Z,2.33
2022-08-19T02:30:35.221Z,2.31
2022-08-19T02:33:01.640Z,2.50
2022-08-19T02:35:28.056Z,2.31
2022-08-19T02:37:54.482Z,2.44
2022-08-19T02:40:20.916Z,2.31
2022-08-19T02:42:47.396Z,2.34
2022-08-19T02:45:13.816Z,2.40
2022-08-19T02:47:40.264Z,2.34
2022-08-19T02:50:06.655Z,2.30
2022-08-19T02:52:33.055Z,2.18
2022-08-19T02:54:59.471Z,2.13
2022-08-19T02:57:25.862Z,2.07
2022-08-19T02:59:52.252Z,2.32
2022-08-19T03:02:18.752Z,2.13
2022-08-19T03:04:45.235Z,2.06
2022-08-19T03:07:11.660Z,1.96
2022-08-19T03:09:38.088Z,1.93
2022-08-19T03:12:04.590Z,1.61
2022-08-19T03:14:30.979Z,1.60
2022-08-19T03:16:57.385Z,1.59
2022-08-19T03:19:23.854Z,1.56
2022-08-19T03:21:50.253Z,1.41
2022-08-19T03:24:16.657Z,1.27
2022-08-19T03:26:43.061Z,1.20
2022-08-19T03:29:09.570Z,1.41
2022-08-19T03:31:43.843Z,1.31
2022-08-19T03:34:12.224Z,1.28
2022-08-19T03:36:38.629Z,1.20
2022-08-19T03:39:05.032Z,1.27
2022-08-19T03:41:43.299Z,1.36
2022-08-19T03:44:16.618Z,1.31
2022-08-19T03:46:44.705Z,1.35
2022-08-19T03:49:11.306Z,1.57
2022-08-19T03:51:40.855Z,1.49
2022-08-19T03:54:07.260Z,1.71
2022-08-19T03:56:33.658Z,1.66
2022-08-19T03:59:00.058Z,1.72
2022-08-19T04:01:35.040Z,1.56
2022-08-19T04:04:02.049Z,1.60
2022-08-19T04:06:29.720Z,1.58
2022-08-19T04:08:56.124Z,1.57
2022-08-19T04:11:22.544Z,1.76
2022-08-19T04:14:08.927Z,1.77
2022-08-19T04:16:35.436Z,1.60
2022-08-19T04:19:01.827Z,2.01
2022-08-19T04:21:28.233Z,1.53
2022-08-19T04:23:54.637Z,1.75
2022-08-19T04:26:22.283Z,2.09
2022-08-19T04:28:48.677Z,1.92
2022-08-19T04:31:15.090Z,1.66
2022-08-19T04:33:41.479Z,1.62
2022-08-19T04:36:07.872Z,1.48
2022-08-19T04:38:34.330Z,1.49
2022-08-19T04:41:00.804Z,1.51
2022-08-19T04:43:27.177Z,1.57
2022-08-19T04:45:56.445Z,1.75
2022-08-19T04:48:27.958Z,1.69
2022-08-19T04:50:54.493Z,1.65
2022-08-19T04:53:20.917Z,1.69
2022-08-19T04:55:47.333Z,1.75
2022-08-19T04:58:13.722Z,1.74
2022-08-19T05:00:41.152Z,1.71
2022-08-19T05:03:07.750Z,1.81
2022-08-19T05:05:45.229Z,1.85
2022-08-19T05:08:11.896Z,1.78
2022-08-19T05:10:41.555Z,1.82
2022-08-19T05:13:08.500Z,1.92
2022-08-19T05:15:34.892Z,1.80
2022-08-19T05:18:01.272Z,2.00
2022-08-19T05:20:27.673Z,1.78
2022-08-19T05:22:54.185Z,1.81
2022-08-19T05:25:20.838Z,1.96
2022-08-19T05:27:47.393Z,2.01
2022-08-19T05:30:13.803Z,1.68
2022-08-19T05:32:40.203Z,1.64
2022-08-19T05:35:06.608Z,1.74
2022-08-19T05:37:32.983Z,1.87
2022-08-19T05:39:59.441Z,1.66
2022-08-19T05:42:25.864Z,1.79
2022-08-19T05:44:52.274Z,1.71
2022-08-19T05:47:18.681Z,1.92
2022-08-19T05:49:45.092Z,1.90
2022-08-19T05:52:11.539Z,2.16
2022-08-19T05:54:37.956Z,1.94
2022-08-19T05:57:04.345Z,2.14
2022-08-19T05:59:30.736Z,2.02
2022-08-19T06:01:58.014Z,2.14
2022-08-19T06:04:24.438Z,2.29
2022-08-19T06:06:50.833Z,2.26
2022-08-19T06:09:17.235Z,2.32
2022-08-19T06:11:43.634Z,2.31
2022-08-19T06:14:10.074Z,2.20
2022-08-19T06:16:43.010Z,2.38
2022-08-19T06:19:09.426Z,2.46
2022-08-19T06:21:35.822Z,2.56
2022-08-19T06:24:02.273Z,2.37
2022-08-19T06:26:28.666Z,2.79
2022-08-19T06:28:55.074Z,2.54
2022-08-19T06:31:21.470Z,2.57
2022-08-19T06:33:47.892Z,2.79
2022-08-19T06:36:16.596Z,3.15
2022-08-19T06:38:42.992Z,2.88
2022-08-19T06:41:12.306Z,3.34
2022-08-19T06:43:42.246Z,3.05
2022-08-19T06:46:08.779Z,3.36
2022-08-19T06:48:44.945Z,2.89
2022-08-19T06:51:12.349Z,3.21
2022-08-19T06:53:38.819Z,3.67
2022-08-19T06:56:05.270Z,3.82
2022-08-19T06:58:31.675Z,3.90
2022-08-19T07:00:58.297Z,3.83
2022-08-19T07:03:24.707Z,3.69
2022-08-19T07:05:51.091Z,3.90
2022-08-19T07:08:17.565Z,3.99
2022-08-19T07:10:45.119Z,3.97
2022-08-19T07:13:11.529Z,4.54
2022-08-19T07:15:37.913Z,4.75
2022-08-19T07:18:06.252Z,4.58
2022-08-19T07:20:32.642Z,5.23
2022-08-19T07:23:01.080Z,5.17
2022-08-19T07:25:32.346Z,5.59
2022-08-19T07:28:01.359Z,5.67
2022-08-19T07:30:28.068Z,6.09
2022-08-19T07:32:54.460Z,6.08
2022-08-19T07:35:20.858Z,6.76
2022-08-19T07:37:47.266Z,6.80
2022-08-19T07:40:13.785Z,7.23
2022-08-19T07:42:40.284Z,6.84
2022-08-19T07:45:06.681Z,6.97
2022-08-19T07:47:48.274Z,7.06
2022-08-19T07:50:17.461Z,6.93
2022-08-19T07:52:43.839Z,7.32
2022-08-19T07:55:39.899Z,7.50
2022-08-19T07:57:56.659Z,7.24
2022-08-19T08:00:24.304Z,7.19
2022-08-19T08:02:50.978Z,7.39
2022-08-19T08:05:17.814Z,7.00
2022-08-19T08:07:46.252Z,7.10
2022-08-19T08:10:20.931Z,7.14
2022-08-19T08:12:58.380Z,6.92
2022-08-19T08:15:36.613Z,7.13
2022-08-19T08:18:06.377Z,7.00
2022-08-19T08:20:34.153Z,7.11
2022-08-19T08:23:04.549Z,7.40
2022-08-19T08:25:32.549Z,7.67
2022-08-19T08:28:00.863Z,7.41
2022-08-19T08:30:27.256Z,7.66
2022-08-19T08:32:57.664Z,7.49
2022-08-19T08:35:24.730Z,7.22
2022-08-19T08:37:51.331Z,7.20
2022-08-19T08:40:17.926Z,7.66
2022-08-19T08:42:44.402Z,7.43
2022-08-19T08:45:10.832Z,7.67
2022-08-19T08:47:37.221Z,7.33
2022-08-19T08:50:04.683Z,7.73
2022-08-19T08:52:32.040Z,7.44
2022-08-19T08:54:59.691Z,6.96
2022-08-19T08:57:26.084Z,7.51
2022-08-19T08:59:54.655Z,7.56
2022-08-19T09:02:21.042Z,7.46
2022-08-19T09:04:47.462Z,7.18
2022-08-19T09:07:18.740Z,6.31
2022-08-19T09:10:01.307Z,7.11
2022-08-19T09:12:27.693Z,7.80
2022-08-19T09:14:54.110Z,7.86
2022-08-19T09:17:20.512Z,8.05
2022-08-19T09:19:46.962Z,7.32
2022-08-19T09:22:13.763Z,8.04
2022-08-19T09:24:51.927Z,8.41
2022-08-19T09:27:18.907Z,7.64
2022-08-19T09:29:45.378Z,8.13
2022-08-19T09:32:26.802Z,7.93
2022-08-19T09:34:53.556Z,7.60
2022-08-19T09:37:23.728Z,7.33
2022-08-19T09:39:51.346Z,7.61
2022-08-19T09:42:20.294Z,7.75
2022-08-19T09:44:57.031Z,7.02
2022-08-19T09:47:25.808Z,7.11
2022-08-19T09:49:52.210Z,6.22
2022-08-19T09:52:18.595Z,5.96
2022-08-19T09:54:45.008Z,5.28
2022-08-19T09:57:18.381Z,5.33
2022-08-19T09:59:44.807Z,5.60
2022-08-19T10:02:11.382Z,5.82
2022-08-19T10:04:37.801Z,5.94
2022-08-19T10:07:04.196Z,5.75
2022-08-19T10:09:34.535Z,6.05
2022-08-19T10:12:01.525Z,6.56
2022-08-19T10:14:29.178Z,6.46
2022-08-19T10:16:55.566Z,6.88
2022-08-19T10:19:25.331Z,6.53
2022-08-19T10:21:52.576Z,6.92
2022-08-19T10:24:19.504Z,6.71
2022-08-19T10:26:45.905Z,7.01
2022-08-19T10:29:13.292Z,7.34
2022-08-19T10:32:02.113Z,7.77
2022-08-19T10:34:29.169Z,8.14
2022-08-19T10:36:56.308Z,8.00
2022-08-19T10:39:30.671Z,8.14
2022-08-19T10:41:57.330Z,8.37
2022-08-19T10:44:23.770Z,8.63
2022-08-19T10:46:50.386Z,8.18
2022-08-19T10:49:16.782Z,7.78
2022-08-19T10:51:46.629Z,7.75
2022-08-19T10:54:15.006Z,7.83
2022-08-19T10:56:41.406Z,7.91
2022-08-19T10:59:07.828Z,8.95
2022-08-19T11:01:34.304Z,20.54
2022-08-19T11:04:00.778Z,9.57
2022-08-19T11:06:27.160Z,8.81
2022-08-19T11:08:53.607Z,8.34
2022-08-19T11:11:20.005Z,7.95
2022-08-19T11:13:46.410Z,9.11
2022-08-19T11:16:12.802Z,8.35
2022-08-19T11:18:39.244Z,8.61
2022-08-19T11:21:06.825Z,8.62
2022-08-19T11:23:33.439Z,8.19
2022-08-19T11:25:59.883Z,8.22
2022-08-19T11:28:26.278Z,9.08
2022-08-19T11:30:52.695Z,8.54
2022-08-19T11:33:19.120Z,8.50
2022-08-19T11:35:45.520Z,8.72
2022-08-19T11:38:11.924Z,8.14
2022-08-19T11:40:38.338Z,8.34
2022-08-19T11:43:04.785Z,7.73
2022-08-19T11:45:31.168Z,8.39
2022-08-19T11:47:57.630Z,8.39
2022-08-19T11:50:24.056Z,8.13
2022-08-19T11:52:50.463Z,8.46
2022-08-19T11:55:16.894Z,8.02
2022-08-19T11:57:43.308Z,7.37
2022-08-19T12:00:09.782Z,7.99
2022-08-19T12:02:36.286Z,8.10
2022-08-19T12:05:02.735Z,8.12
2022-08-19T12:07:29.145Z,8.15
2022-08-19T12:09:55.538Z,7.35
2022-08-19T12:12:21.954Z,7.47
2022-08-19T12:14:48.373Z,7.20
2022-08-19T12:17:14.803Z,7.54
2022-08-19T12:19:41.221Z,7.48
2022-08-19T12:22:07.621Z,7.43
2022-08-19T12:24:34.011Z,7.63
2022-08-19T12:27:00.923Z,7.78
2022-08-19T12:29:29.655Z,7.53
2022-08-19T12:31:56.046Z,7.16
2022-08-19T12:34:22.428Z,7.00
2022-08-19T12:36:48.901Z,6.71
2022-08-19T12:39:15.340Z,6.97
2022-08-19T12:41:43.312Z,7.29
2022-08-19T12:44:21.312Z,7.88
2022-08-19T12:46:55.475Z,7.66
2022-08-19T12:49:21.936Z,7.77
2022-08-19T12:52:08.346Z,7.67
2022-08-19T12:54:34.756Z,8.46
2022-08-19T12:57:01.176Z,8.49
2022-08-19T12:59:27.604Z,8.43
2022-08-19T13:01:54.001Z,8.66
2022-08-19T13:04:20.443Z,8.74
2022-08-19T13:06:46.854Z,8.68
2022-08-19T13:09:13.302Z,8.82
2022-08-19T13:11:39.728Z,8.71
2022-08-19T13:14:06.146Z,9.25
2022-08-19T13:16:32.557Z,10.04
2022-08-19T13:18:58.967Z,9.34
2022-08-19T13:21:25.370Z,8.60
2022-08-19T13:23:51.763Z,9.36
2022-08-19T13:26:18.188Z,9.34
2022-08-19T13:28:44.611Z,9.49
2022-08-19T13:31:11.066Z,9.09
2022-08-19T13:33:40.227Z,9.05
2022-08-19T13:36:06.641Z,9.55
2022-08-19T13:38:36.134Z,9.18
2022-08-19T13:41:07.809Z,9.84
2022-08-19T13:43:36.574Z,9.93
2022-08-19T13:46:02.998Z,9.67
2022-08-19T13:48:29.490Z,8.85
2022-08-19T13:50:55.915Z,9.47
2022-08-19T13:53:22.322Z,9.68
2022-08-19T13:55:48.752Z,9.60
2022-08-19T13:58:15.165Z,9.98
2022-08-19T14:00:41.685Z,9.98
2022-08-19T14:03:09.442Z,10.03
2022-08-19T14:05:35.958Z,10.37
2022-08-19T14:08:02.389Z,10.61
2022-08-19T14:10:28.779Z,10.47
2022-08-19T14:12:55.179Z,10.81
2022-08-19T14:15:21.580Z,10.82
2022-08-19T14:17:47.997Z,10.69
2022-08-19T14:20:17.514Z,10.56
2022-08-19T14:22:45.042Z,10.83
2022-08-19T14:25:11.501Z,11.10
2022-08-19T14:27:37.916Z,10.95
2022-08-19T14:30:04.421Z,10.88
2022-08-19T14:32:30.962Z,10.43
2022-08-19T14:34:57.382Z,10.44
2022-08-19T14:37:23.765Z,10.60
2022-08-19T14:39:51.511Z,10.78
2022-08-19T14:42:17.945Z,10.36
2022-08-19T14:44:44.325Z,10.89
2022-08-19T14:47:10.737Z,10.59
2022-08-19T14:49:42.315Z,10.37
2022-08-19T14:52:12.202Z,10.69
2022-08-19T14:54:38.609Z,11.13
2022-08-19T14:57:05.048Z,11.85
2022-08-19T14:59:31.501Z,11.48
2022-08-19T15:01:58.031Z,11.10
2022-08-19T15:04:24.456Z,11.67
2022-08-19T15:06:50.892Z,11.13
2022-08-19T15:09:17.315Z,11.50
2022-08-19T15:11:43.753Z,11.76
2022-08-19T15:14:10.174Z,11.51
2022-08-19T15:16:36.593Z,11.93
2022-08-19T15:19:03.111Z,12.77
2022-08-19T15:21:29.593Z,13.21
2022-08-19T15:23:56.041Z,12.76
2022-08-19T15:26:22.478Z,13.05
2022-08-19T15:28:48.955Z,13.01
2022-08-19T15:31:17.203Z,13.40
2022-08-19T15:33:53.207Z,13.60
2022-08-19T15:36:19.631Z,13.24
2022-08-19T15:38:46.990Z,12.86
2022-08-19T15:41:14.748Z,13.43
2022-08-19T15:43:41.148Z,13.88
2022-08-19T15:46:07.598Z,13.47
2022-08-19T15:48:34.027Z,13.83
2022-08-19T15:51:00.532Z,13.80
2022-08-19T15:53:27.008Z,13.38
2022-08-19T15:55:53.407Z,13.43
2022-08-19T15:58:28.212Z,12.85
2022-08-19T16:00:55.517Z,13.67
2022-08-19T16:03:22.037Z,13.46
2022-08-19T16:05:48.424Z,13.37
2022-08-19T16:08:14.839Z,12.28
2022-08-19T16:10:41.250Z,12.20
2022-08-19T16:13:07.638Z,12.06
2022-08-19T16:15:34.062Z,12.18
2022-08-19T16:18:00.455Z,12.03
2022-08-19T16:20:27.130Z,11.76
2022-08-19T16:22:53.658Z,11.71
2022-08-19T16:25:20.138Z,11.79
2022-08-19T16:27:54.184Z,12.85
2022-08-19T16:30:33.017Z,12.12
2022-08-19T16:32:59.418Z,12.10
2022-08-19T16:35:25.826Z,12.27
2022-08-19T16:37:52.249Z,12.35
2022-08-19T16:40:18.720Z,12.25
2022-08-19T16:42:45.190Z,12.40
2022-08-19T16:45:11.613Z,12.72
2022-08-19T16:47:38.038Z,12.11
2022-08-19T16:50:04.448Z,12.25
2022-08-19T16:52:30.846Z,11.92
2022-08-19T16:54:57.253Z,12.54
2022-08-19T16:57:23.670Z,12.61
2022-08-19T16:59:50.082Z,13.33
2022-08-19T17:02:16.471Z,12.51
2022-08-19T17:04:42.864Z,13.05
2022-08-19T17:07:09.261Z,13.13
2022-08-19T17:09:35.693Z,13.23
2022-08-19T17:12:04.456Z,13.13
2022-08-19T17:14:30.870Z,12.41
2022-08-19T17:16:57.290Z,12.19
2022-08-19T17:19:23.700Z,12.92
2022-08-19T17:21:50.115Z,13.33
2022-08-19T17:24:16.523Z,12.74
2022-08-19T17:26:42.940Z,12.73
2022-08-19T17:29:09.332Z,11.64
2022-08-19T17:31:35.728Z,12.31
2022-08-19T17:34:07.430Z,12.11
2022-08-19T17:36:35.758Z,13.22
2022-08-19T17:39:02.291Z,12.90
2022-08-19T17:41:28.698Z,12.44
2022-08-19T17:43:55.159Z,12.77
2022-08-19T17:46:21.557Z,12.85
2022-08-19T17:48:51.223Z,12.22
2022-08-19T17:51:18.427Z,12.75
2022-08-19T17:53:48.432Z,12.98
2022-08-19T17:56:14.855Z,12.66
2022-08-19T17:58:41.553Z,13.35
2022-08-19T18:01:11.522Z,12.73
2022-08-19T18:03:39.515Z,12.98
2022-08-19T18:06:05.961Z,12.30
2022-08-19T18:08:32.370Z,12.70
2022-08-19T18:10:58.783Z,12.56
2022-08-19T18:13:25.191Z,12.64
2022-08-19T18:15:51.676Z,12.56
2022-08-19T18:18:18.093Z,13.09
2022-08-19T18:20:44.486Z,12.77
2022-08-19T18:23:43.869Z,12.05
2022-08-19T18:25:57.292Z,12.36
2022-08-19T18:28:23.723Z,13.43
2022-08-19T18:30:50.126Z,13.08
2022-08-19T18:33:16.542Z,13.62
2022-08-19T18:35:44.079Z,14.16
2022-08-19T18:38:10.703Z,13.87
2022-08-19T18:40:37.119Z,13.88
2022-08-19T18:43:03.539Z,13.17
2022-08-19T18:45:29.964Z,13.02
2022-08-19T18:47:56.530Z,12.54
2022-08-19T18:50:23.069Z,12.61
2022-08-19T18:52:49.475Z,12.24
2022-08-19T18:55:15.874Z,11.94
2022-08-19T18:57:42.284Z,12.27
2022-08-19T19:00:08.672Z,12.62
2022-08-19T19:02:35.088Z,12.10
2022-08-19T19:05:06.470Z,11.75
2022-08-19T19:07:33.638Z,11.82
2022-08-19T19:10:00.157Z,12.24
2022-08-19T19:12:26.594Z,13.46
2022-08-19T19:14:53.020Z,12.19
2022-08-19T19:17:19.478Z,11.66
2022-08-19T19:19:45.936Z,12.06
2022-08-19T19:22:12.341Z,13.27
2022-08-19T19:24:38.745Z,12.31
2022-08-19T19:27:05.215Z,12.46
2022-08-19T19:29:33.394Z,11.97
2022-08-19T19:31:59.795Z,12.00
2022-08-19T19:34:29.655Z,12.05
2022-08-19T19:36:56.546Z,12.80
2022-08-19T19:39:29.726Z,12.81
2022-08-19T19:42:12.323Z,12.76
2022-08-19T19:44:40.108Z,12.18
2022-08-19T19:47:13.699Z,13.04
2022-08-19T19:49:57.926Z,12.73
2022-08-19T19:52:26.530Z,11.98
2022-08-19T19:54:52.933Z,12.25
2022-08-19T19:57:19.374Z,12.22
2022-08-19T19:59:51.280Z,12.32
2022-08-19T20:02:18.079Z,12.73
2022-08-19T20:04:44.487Z,12.17
2022-08-19T20:07:10.884Z,11.98
2022-08-19T20:09:58.205Z,11.73
2022-08-19T20:12:23.660Z,10.99
2022-08-19T20:14:50.111Z,11.31
2022-08-19T20:17:16.508Z,11.06
2022-08-19T20:19:42.890Z,10.86
2022-08-19T20:22:09.300Z,10.65
2022-08-19T20:24:37.356Z,9.81
2022-08-19T20:27:03.811Z,10.09
2022-08-19T20:29:39.410Z,10.03
2022-08-19T20:32:07.735Z,9.97
2022-08-19T20:34:34.184Z,9.88
2022-08-19T20:37:00.583Z,9.49
2022-08-19T20:39:27.003Z,10.31
2022-08-19T20:41:53.477Z,10.62
2022-08-19T20:44:19.889Z,10.45
2022-08-19T20:46:54.210Z,10.38
2022-08-19T20:49:22.093Z,9.93
2022-08-19T20:51:48.493Z,10.17
2022-08-19T20:54:14.891Z,10.08
2022-08-19T20:56:41.324Z,10.23
2022-08-19T20:59:07.789Z,10.11
2022-08-19T21:01:34.173Z,10.06
2022-08-19T21:04:00.589Z,10.18
2022-08-19T21:06:26.997Z,11.40
2022-08-19T21:08:54.190Z,12.19
2022-08-19T21:11:20.847Z,10.11
2022-08-19T21:13:47.293Z,9.87
2022-08-19T21:16:13.693Z,10.12
2022-08-19T21:18:40.098Z,10.13
2022-08-19T21:21:06.488Z,9.77
2022-08-19T21:23:32.886Z,9.65
2022-08-19T21:25:59.288Z,9.11
2022-08-19T21:28:35.003Z,9.43
2022-08-19T21:31:02.695Z,9.48
2022-08-19T21:33:32.280Z,9.56
2022-08-19T21:35:58.671Z,9.40
2022-08-19T21:38:25.124Z,9.38
2022-08-19T21:40:51.528Z,9.43
2022-08-19T21:43:17.912Z,9.08
2022-08-19T21:45:44.309Z,9.18
2022-08-19T21:48:10.715Z,9.05
2022-08-19T21:50:37.131Z,9.14
2022-08-19T21:53:03.526Z,9.42
2022-08-19T21:55:29.933Z,9.42
2022-08-19T21:57:56.465Z,8.88
2022-08-19T22:00:22.899Z,8.51
2022-08-19T22:02:49.338Z,8.80
2022-08-19T22:05:15.736Z,8.68
2022-08-19T22:07:42.130Z,8.77
2022-08-19T22:10:08.673Z,8.96
2022-08-19T22:12:35.056Z,8.82
2022-08-19T22:15:01.476Z,8.96
2022-08-19T22:17:27.878Z,9.18
2022-08-19T22:19:54.282Z,9.10
2022-08-19T22:22:20.684Z,8.97
2022-08-19T22:24:47.070Z,9.11
2022-08-19T22:27:13.496Z,9.35
2022-08-19T22:29:39.909Z,10.00
2022-08-19T22:32:26.946Z,9.53
2022-08-19T22:34:52.690Z,9.66
2022-08-19T22:37:19.107Z,9.63
2022-08-19T22:39:45.565Z,9.07
2022-08-19T22:42:12.035Z,9.34
2022-08-19T22:44:38.424Z,9.74
2022-08-19T22:47:04.822Z,9.82
2022-08-19T22:49:31.236Z,9.80
2022-08-19T22:51:57.629Z,9.69
2022-08-19T22:54:24.045Z,9.47
2022-08-19T22:56:50.435Z,9.67
2022-08-19T22:59:16.842Z,9.52
2022-08-19T23:01:43.245Z,9.33
2022-08-19T23:04:09.640Z,8.90
2022-08-19T23:06:40.243Z,9.11
2022-08-19T23:09:08.789Z,8.79
2022-08-19T23:11:35.299Z,8.98
2022-08-19T23:14:01.855Z,9.12
2022-08-19T23:16:28.280Z,9.43
2022-08-19T23:18:56.035Z,9.67
2022-08-19T23:21:22.648Z,9.44
2022-08-19T23:23:49.037Z,10.36
2022-08-19T23:26:15.441Z,10.82
2022-08-19T23:28:41.833Z,10.33
2022-08-19T23:31:08.242Z,10.62
2022-08-19T23:33:50.880Z,9.50
2022-08-19T23:36:18.112Z,9.89
2022-08-19T23:38:44.531Z,9.80
2022-08-19T23:41:10.924Z,9.77
2022-08-19T23:43:37.321Z,10.41
2022-08-19T23:46:10.440Z,10.35
2022-08-19T23:48:37.172Z,9.75
2022-08-19T23:51:03.566Z,9.43
2022-08-19T23:53:29.971Z,9.40
2022-08-19T23:55:56.379Z,9.54
2022-08-19T23:58:22.789Z,9.63
